Other Surface Observations
Issued by NWS Missoula, MT

Home | Current Version | Previous Version | Text Only | Print | Product List | Glossary On
Versions: 1 2 3 4 5 6 7 8 9 10 11 12 13 14 15 16 17 18 19 20 21 22 23 24 25 26 27 28 29 30 31 32 33 34 35 36 37 38 39 40 41 42 43 44 45 46 47 48 49 50
065
SXUS55 KMSO 222224
OSOMSO
MONTANA AWOS SUMMARY
NATIONAL WEATHER SERVICE MISSOULA MT
323 PM MST SUN JAN 22 2017

Montana AWOS Reports

LAUREL      |K6S8 222215Z AUTO 00000KT 40SM 03/M06 A2976 RMK AO1 T00331055
TWIN BRIDGES|K7S1 222215Z AUTO 00000KT 40SM M03/M09 A2972 RMK AO1 T10271093
ROUNDUP     |KRPX 222215Z AUTO 05005KT 40SM 04/M04 A2970 RMK AO1 T00441043




USA.gov is the U.S. government's official web portal to all federal, state and local government web resources and services.